Airfield :







YOU CAN JOIN US ON...

 
LOGIN :

Register | Disclaimer

   EN    FR    IT 

 









Legend :    VFR   Marginal VFR   IFR   Intensive IFR   Very Intensive IFR
Visi :
Ceiling :
>= 8 km
>= 3000ft
5 to 8 km
1000 to 3000 ft
1500m to 5 km
500 to 1000 ft
800 to 1500m
200 to 500 ft
< 800m
< 200 ft
Symbols :   Thunderstorms  Fog  Heavy snow  Heavy precipitations  Wind > 20 kt






- Airport Elevation : 270 ft
- IATA code : YMX


CYMX - Montreal International Mirabel

CURRENT METAR :
  • 101100Z 06002KT 30SM SCT100 BKN120 11/06 A2996 RMK AC3AC2 SLP149

EXPIRED METARs :
  • 101000Z 00000KT 25SM BKN110 11/07 A2996 RMK AC5 SLP148
  • 100900Z 00000KT 25SM SCT110 11/07 A2997 RMK AC4 SLP150

TAF TAF CYMX
Valid from the 10 at 06:00 until the 11 at 06:00 UTC


100539Z 1006/1106 VRB03KT P6SM BKN080
FM101500 15005KT P6SM SCT030
BECMG 1016/1018 17006KT
BECMG 1020/1022 VRB03KT
FM110000 07005KT P6SM BKN090
BECMG 1102/1104 04006KT
BECMG 1104/1106 05010G20KT RMK NXT FCST BY 101200Z
CZUL FIR / North America



MET'MAP, your aeronautical weather chart ! - Copyright ORBIFLY December 2007 - Disclaimer

ORBIFLY MET'MAP TEAM :

Programming & Development : Alexandra Zaïnal
Concept & original design : Baudouin d'Aumeries
Assistance for programming : Marc-Olivier Méhu
Technical & hardware support : Manuel Goepfert

Contact : metmap@orbifly.com




SOURCES & CREDITS :

   NOAA